createdAt,value
2022-08-07T00:03:47.395Z,2.10
2022-08-07T00:08:44.372Z,2.03
2022-08-07T00:13:44.758Z,2.13
2022-08-07T00:18:38.833Z,2.20
2022-08-07T00:23:31.735Z,2.30
2022-08-07T00:28:24.945Z,2.10
2022-08-07T00:33:28.452Z,2.30
2022-08-07T00:38:31.432Z,2.27
2022-08-07T00:44:01.402Z,2.30
2022-08-07T00:48:37.086Z,2.40
2022-08-07T00:53:39.175Z,2.27
2022-08-07T00:58:47.370Z,1.90
2022-08-07T01:03:56.584Z,2.43
2022-08-07T01:08:55.696Z,2.30
2022-08-07T01:13:55.623Z,2.20
2022-08-07T01:18:49.357Z,2.10
2022-08-07T01:23:46.848Z,2.50
2022-08-07T01:28:40.534Z,2.33
2022-08-07T01:33:55.251Z,2.23
2022-08-07T01:38:51.926Z,2.20
2022-08-07T01:43:50.467Z,2.30
2022-08-07T01:48:46.577Z,2.07
2022-08-07T01:54:09.296Z,2.33
2022-08-07T01:59:08.513Z,2.13
2022-08-07T02:04:10.273Z,3.07
2022-08-07T02:09:08.083Z,2.63
2022-08-07T02:14:07.374Z,3.00
2022-08-07T02:19:02.151Z,3.00
2022-08-07T02:24:00.172Z,2.60
2022-08-07T02:28:54.696Z,2.10
2022-08-07T02:34:03.310Z,2.67
2022-08-07T02:39:16.516Z,2.30
2022-08-07T02:44:15.744Z,2.80
2022-08-07T02:49:10.694Z,2.47
2022-08-07T02:54:25.277Z,2.50
2022-08-07T02:59:19.796Z,2.30
2022-08-07T03:04:19.833Z,2.33
2022-08-07T03:09:13.647Z,2.50
2022-08-07T03:14:06.768Z,2.33
2022-08-07T03:19:00.154Z,2.30
2022-08-07T03:24:18.160Z,2.17
2022-08-07T03:29:11.162Z,2.50
2022-08-07T03:34:09.889Z,2.33
2022-08-07T03:39:14.948Z,2.67
2022-08-07T03:44:09.960Z,2.40
2022-08-07T03:49:03.510Z,2.83
2022-08-07T03:54:36.461Z,2.73
2022-08-07T03:59:16.986Z,3.00
2022-08-07T04:04:17.226Z,3.50
2022-08-07T04:09:15.396Z,3.70
2022-08-07T04:14:38.782Z,4.20
2022-08-07T04:19:51.094Z,3.47
2022-08-07T04:24:41.097Z,3.20
2022-08-07T04:29:40.321Z,3.70
2022-08-07T04:34:51.231Z,3.60
2022-08-07T04:39:47.844Z,3.53
2022-08-07T04:44:54.779Z,4.30
2022-08-07T04:50:04.505Z,3.20
2022-08-07T04:55:02.571Z,3.43
2022-08-07T05:00:17.204Z,3.37
2022-08-07T05:05:52.780Z,3.43
2022-08-07T05:10:34.284Z,3.27
2022-08-07T05:15:31.331Z,3.43
2022-08-07T05:20:32.125Z,3.50
2022-08-07T05:25:36.604Z,3.40
2022-08-07T05:30:39.905Z,3.17
2022-08-07T05:35:42.211Z,2.87
2022-08-07T05:40:41.815Z,2.87
2022-08-07T05:45:47.880Z,2.43
2022-08-07T05:50:45.149Z,2.40
2022-08-07T05:56:03.249Z,2.67
2022-08-07T06:00:56.484Z,2.60
2022-08-07T06:05:56.441Z,2.47
2022-08-07T06:10:51.213Z,2.60
2022-08-07T06:15:45.433Z,3.40
2022-08-07T06:20:49.819Z,2.50
2022-08-07T06:25:54.740Z,2.60
2022-08-07T06:30:52.828Z,2.20
2022-08-07T06:36:06.911Z,2.67
2022-08-07T06:41:07.144Z,2.50
2022-08-07T06:46:03.962Z,2.50
2022-08-07T06:51:08.159Z,2.73
2022-08-07T06:56:02.447Z,2.33
2022-08-07T07:01:01.607Z,2.43
2022-08-07T07:06:04.893Z,2.37
2022-08-07T07:11:00.926Z,2.60
2022-08-07T07:15:56.108Z,2.50
2022-08-07T07:20:54.538Z,2.30
2022-08-07T07:26:33.921Z,2.50
2022-08-07T07:31:03.081Z,2.30
2022-08-07T07:36:05.261Z,2.57
2022-08-07T07:41:08.951Z,2.20
2022-08-07T07:46:53.349Z,2.40
2022-08-07T07:51:18.620Z,2.03
2022-08-07T07:56:13.808Z,2.90
2022-08-07T08:02:03.296Z,2.20
2022-08-07T08:06:21.640Z,1.93
2022-08-07T08:11:18.224Z,2.20
2022-08-07T08:16:34.998Z,2.33
2022-08-07T08:22:02.528Z,2.50
2022-08-07T08:27:09.626Z,2.60
2022-08-07T08:32:18.038Z,2.43
2022-08-07T08:37:59.463Z,2.33
2022-08-07T08:42:27.841Z,2.70
2022-08-07T08:47:25.664Z,2.70
2022-08-07T08:52:21.529Z,2.33
2022-08-07T08:57:16.325Z,2.60
2022-08-07T09:02:14.086Z,2.50
2022-08-07T09:07:11.348Z,2.87
2022-08-07T09:12:31.196Z,2.50
2022-08-07T09:17:34.110Z,2.50
2022-08-07T09:24:31.601Z,3.00
2022-08-07T09:28:04.997Z,2.53
2022-08-07T09:33:05.562Z,2.60
2022-08-07T09:38:13.194Z,2.47
2022-08-07T09:43:14.601Z,2.70
2022-08-07T09:48:18.996Z,2.77
2022-08-07T09:53:14.297Z,2.70
2022-08-07T09:58:15.307Z,2.80
2022-08-07T10:04:03.584Z,2.60
2022-08-07T10:08:44.098Z,2.50
2022-08-07T10:14:01.647Z,2.40
2022-08-07T10:19:11.291Z,2.83
2022-08-07T10:24:21.344Z,3.10
2022-08-07T10:29:24.869Z,2.80
2022-08-07T10:34:38.762Z,3.00
2022-08-07T10:39:41.464Z,2.77
2022-08-07T10:44:54.714Z,2.60
2022-08-07T10:49:51.897Z,3.30
2022-08-07T10:54:53.523Z,2.87
2022-08-07T11:00:03.293Z,2.50
2022-08-07T11:05:10.452Z,2.67
2022-08-07T11:10:07.390Z,2.40
2022-08-07T11:15:14.733Z,2.20
2022-08-07T11:20:15.316Z,2.03
2022-08-07T11:25:10.652Z,2.30
2022-08-07T11:30:18.159Z,2.20
2022-08-07T11:35:16.600Z,2.33
2022-08-07T11:40:20.569Z,2.50
2022-08-07T11:45:20.425Z,2.80
2022-08-07T11:50:31.611Z,2.27
2022-08-07T11:56:13.983Z,2.00
2022-08-07T12:01:02.654Z,2.47
2022-08-07T12:06:02.555Z,2.47
2022-08-07T12:11:21.470Z,2.50
2022-08-07T12:16:30.145Z,2.30
2022-08-07T12:22:35.706Z,2.43
2022-08-07T12:26:47.329Z,2.90
2022-08-07T12:31:53.350Z,2.60
2022-08-07T12:36:58.736Z,2.50
2022-08-07T12:41:52.702Z,2.40
2022-08-07T12:46:52.046Z,2.50
2022-08-07T12:51:57.112Z,2.03
2022-08-07T12:57:09.442Z,2.30
2022-08-07T13:02:10.143Z,2.10
2022-08-07T13:08:11.547Z,2.30
2022-08-07T13:12:52.064Z,2.20
2022-08-07T13:17:51.245Z,2.10
2022-08-07T13:22:53.556Z,2.13
2022-08-07T13:28:12.459Z,1.83
2022-08-07T13:33:05.535Z,2.00
2022-08-07T13:38:20.943Z,2.10
2022-08-07T13:43:18.389Z,2.17
2022-08-07T13:48:27.570Z,2.00
2022-08-07T13:53:55.369Z,1.90
2022-08-07T13:59:02.398Z,1.90
2022-08-07T14:04:05.611Z,1.80
2022-08-07T14:09:04.476Z,2.10
2022-08-07T14:14:04.740Z,2.00
2022-08-07T14:18:58.973Z,2.00
2022-08-07T14:24:00.170Z,1.90
2022-08-07T14:28:57.461Z,1.70
2022-08-07T14:33:55.739Z,1.80
2022-08-07T14:38:51.845Z,1.60
2022-08-07T14:43:56.983Z,1.60
2022-08-07T14:48:52.568Z,1.53
2022-08-07T14:59:03.066Z,1.53
2022-08-07T15:04:07.265Z,1.60
2022-08-07T15:14:21.150Z,1.70
2022-08-07T15:19:16.780Z,1.30
2022-08-07T15:25:14.387Z,1.43
2022-08-07T15:30:10.163Z,1.60
2022-08-07T15:34:50.584Z,1.77
2022-08-07T15:39:57.777Z,2.53
2022-08-07T15:44:51.919Z,1.90
2022-08-07T15:50:04.055Z,2.00
2022-08-07T15:55:02.912Z,1.80
2022-08-07T15:59:59.371Z,1.50
2022-08-07T16:04:58.768Z,1.50
2022-08-07T16:09:53.883Z,1.50
2022-08-07T16:15:02.065Z,1.50
2022-08-07T16:20:03.816Z,1.90
2022-08-07T16:24:58.410Z,2.37
2022-08-07T16:30:11.428Z,1.40
2022-08-07T16:35:58.420Z,1.57
2022-08-07T16:41:01.707Z,1.50
2022-08-07T16:46:33.602Z,1.70
2022-08-07T16:52:01.910Z,1.60
2022-08-07T16:56:32.097Z,1.60
2022-08-07T17:01:36.268Z,2.50
2022-08-07T17:06:45.895Z,1.63
2022-08-07T17:12:04.231Z,1.90
2022-08-07T17:17:01.585Z,1.50
2022-08-07T17:22:01.667Z,1.43
2022-08-07T17:26:56.973Z,1.70
2022-08-07T17:32:02.691Z,1.70
2022-08-07T17:37:09.648Z,1.43
2022-08-07T17:42:16.725Z,1.60
2022-08-07T17:47:17.085Z,2.10
2022-08-07T17:52:14.246Z,1.83
2022-08-07T17:57:18.826Z,1.60
2022-08-07T18:02:14.730Z,1.70
2022-08-07T18:07:20.841Z,1.80
2022-08-07T18:12:28.492Z,1.60
2022-08-07T18:18:46.176Z,1.80
2022-08-07T18:22:49.641Z,1.53
2022-08-07T18:27:53.443Z,1.80
2022-08-07T18:33:10.952Z,1.60
2022-08-07T18:38:59.082Z,1.63
2022-08-07T18:43:49.188Z,1.70
2022-08-07T18:50:30.074Z,1.70
2022-08-07T18:54:05.064Z,1.53
2022-08-07T18:59:47.981Z,1.77
2022-08-07T19:04:57.375Z,1.77
2022-08-07T19:10:00.510Z,1.67
2022-08-07T19:14:59.709Z,1.70
2022-08-07T19:19:57.055Z,1.60
2022-08-07T19:24:50.296Z,1.80
2022-08-07T19:31:02.942Z,1.80
2022-08-07T19:35:00.966Z,1.80
2022-08-07T19:40:01.901Z,1.90
2022-08-07T19:44:56.609Z,2.00
2022-08-07T19:49:58.273Z,1.70
2022-08-07T19:54:57.068Z,1.80
2022-08-07T19:59:53.346Z,1.80
2022-08-07T20:04:49.078Z,1.80
2022-08-07T20:10:33.562Z,1.77
2022-08-07T20:14:58.487Z,1.90
2022-08-07T20:19:58.602Z,1.90
2022-08-07T20:24:53.227Z,1.87
2022-08-07T20:29:59.263Z,2.00
2022-08-07T20:34:55.337Z,1.83
2022-08-07T20:40:02.615Z,1.90
2022-08-07T20:44:59.183Z,2.20
2022-08-07T20:50:00.919Z,2.17
2022-08-07T20:54:56.794Z,1.90
2022-08-07T21:00:06.406Z,1.93
2022-08-07T21:05:01.693Z,2.00
2022-08-07T21:10:07.199Z,2.10
2022-08-07T21:15:06.329Z,2.00
2022-08-07T21:20:05.481Z,2.13
2022-08-07T21:25:12.197Z,2.23
2022-08-07T21:30:08.560Z,2.10
2022-08-07T21:35:05.006Z,1.90
2022-08-07T21:40:08.358Z,1.90
2022-08-07T21:46:08.814Z,1.90
2022-08-07T21:50:26.228Z,2.10
2022-08-07T21:55:28.343Z,1.90
2022-08-07T22:00:25.057Z,2.00
2022-08-07T22:05:43.979Z,2.20
2022-08-07T22:10:35.434Z,2.30
2022-08-07T22:16:40.302Z,2.40
2022-08-07T22:20:47.681Z,2.10
2022-08-07T22:25:44.424Z,2.40
2022-08-07T22:30:40.646Z,2.20
2022-08-07T22:35:39.702Z,2.33
2022-08-07T22:40:36.111Z,2.30
2022-08-07T22:46:41.025Z,2.10
2022-08-07T22:50:56.988Z,2.23
2022-08-07T22:55:58.109Z,2.30
2022-08-07T23:00:58.909Z,2.10
2022-08-07T23:06:14.518Z,2.50
2022-08-07T23:11:17.050Z,2.47
2022-08-07T23:16:46.639Z,2.50
2022-08-07T23:21:36.634Z,2.70
2022-08-07T23:26:35.479Z,2.30
2022-08-07T23:32:48.919Z,2.57
2022-08-07T23:37:19.597Z,2.50
2022-08-07T23:42:22.091Z,2.30
2022-08-07T23:47:20.890Z,2.40
2022-08-07T23:53:01.265Z,2.40
2022-08-07T23:57:34.831Z,2.50
